createdAt,value
2022-11-15T00:00:20.916Z,9.86
2022-11-15T00:01:20.880Z,9.89
2022-11-15T00:02:20.973Z,9.91
2022-11-15T00:03:20.895Z,9.91
2022-11-15T00:04:20.843Z,9.91
2022-11-15T00:05:20.828Z,9.93
2022-11-15T00:06:20.845Z,9.93
2022-11-15T00:07:48.097Z,9.92
2022-11-15T00:08:21.828Z,9.92
2022-11-15T00:09:20.794Z,9.92
2022-11-15T00:10:20.786Z,9.91
2022-11-15T00:11:20.775Z,9.93
2022-11-15T00:12:20.729Z,9.93
2022-11-15T00:13:20.717Z,9.95
2022-11-15T00:14:20.718Z,9.96
2022-11-15T00:15:20.690Z,9.96
2022-11-15T00:16:20.704Z,9.96
2022-11-15T00:17:20.695Z,9.98
2022-11-15T00:18:20.656Z,9.99
2022-11-15T00:19:20.648Z,9.99
2022-11-15T00:20:20.654Z,10.04
2022-11-15T00:21:20.637Z,10.04
2022-11-15T00:22:20.597Z,10.04
2022-11-15T00:23:20.621Z,10.02
2022-11-15T00:24:20.614Z,10.06
2022-11-15T00:25:20.597Z,10.06
2022-11-15T00:26:20.555Z,10.09
2022-11-15T00:27:20.648Z,10.10
2022-11-15T00:28:20.529Z,10.10
2022-11-15T00:29:20.527Z,10.13
2022-11-15T00:30:20.504Z,10.13
2022-11-15T00:31:20.521Z,10.14
2022-11-15T00:32:20.514Z,10.13
2022-11-15T00:33:20.457Z,10.11
2022-11-15T00:34:20.458Z,10.11
2022-11-15T00:35:20.481Z,10.11
2022-11-15T00:36:20.451Z,10.11
2022-11-15T00:37:20.433Z,10.11
2022-11-15T00:38:20.384Z,10.13
2022-11-15T00:39:20.388Z,10.11
2022-11-15T00:40:20.405Z,10.10
2022-11-15T00:41:20.373Z,10.13
2022-11-15T00:42:20.333Z,10.13
2022-11-15T00:43:20.361Z,10.14
2022-11-15T00:44:20.339Z,10.16
2022-11-15T00:45:20.313Z,10.17
2022-11-15T00:46:20.303Z,10.17
2022-11-15T00:47:20.309Z,10.16
2022-11-15T00:48:20.396Z,10.17
2022-11-15T00:49:20.253Z,10.17
2022-11-15T00:50:20.247Z,10.14
2022-11-15T00:51:20.222Z,10.14
2022-11-15T00:52:20.223Z,10.14
2022-11-15T00:53:20.229Z,10.16
2022-11-15T00:54:20.199Z,10.16
2022-11-15T00:55:20.177Z,10.14
2022-11-15T00:56:20.186Z,10.14
2022-11-15T00:57:20.186Z,10.14
2022-11-15T00:58:20.162Z,10.13
2022-11-15T00:59:20.119Z,10.13
2022-11-15T01:00:20.128Z,10.11
2022-11-15T01:01:20.193Z,10.13
2022-11-15T01:02:20.127Z,10.14
2022-11-15T01:03:20.098Z,10.16
2022-11-15T01:04:20.076Z,10.16
2022-11-15T01:05:20.066Z,10.16
2022-11-15T01:06:20.031Z,10.17
2022-11-15T01:07:20.080Z,10.20
2022-11-15T01:08:20.002Z,10.20
2022-11-15T01:09:20.013Z,10.20
2022-11-15T01:10:19.995Z,10.20
2022-11-15T01:11:19.985Z,10.22
2022-11-15T01:12:19.948Z,10.25
2022-11-15T01:13:19.974Z,10.24
2022-11-15T01:14:25.069Z,10.25
2022-11-15T01:15:20.933Z,10.29
2022-11-15T01:16:19.923Z,10.29
2022-11-15T01:17:19.903Z,10.34
2022-11-15T01:18:19.889Z,10.34
2022-11-15T01:19:19.873Z,10.35
2022-11-15T01:20:19.877Z,10.35
2022-11-15T01:21:19.853Z,10.35
2022-11-15T01:22:19.817Z,10.36
2022-11-15T01:23:19.833Z,10.36
2022-11-15T01:24:19.814Z,10.38
2022-11-15T01:25:19.777Z,10.35
2022-11-15T01:26:19.760Z,10.39
2022-11-15T01:27:19.786Z,10.39
2022-11-15T01:28:19.770Z,10.39
2022-11-15T01:29:19.752Z,10.42
2022-11-15T01:30:19.741Z,10.43
2022-11-15T01:31:19.704Z,10.43
2022-11-15T01:32:19.683Z,10.43
2022-11-15T01:33:19.702Z,10.43
2022-11-15T01:34:19.666Z,10.42
2022-11-15T01:35:19.643Z,10.42
2022-11-15T01:36:19.627Z,10.42
2022-11-15T01:37:19.644Z,10.42
2022-11-15T01:38:19.640Z,10.43
2022-11-15T01:39:19.593Z,10.46
2022-11-15T01:40:19.579Z,10.46
2022-11-15T01:41:19.589Z,10.51
2022-11-15T01:42:19.543Z,10.54
2022-11-15T01:43:19.551Z,10.57
2022-11-15T01:44:19.548Z,10.55
2022-11-15T01:45:19.512Z,10.54
2022-11-15T01:46:19.502Z,10.54
2022-11-15T01:47:19.493Z,10.54
2022-11-15T01:48:19.489Z,10.52
2022-11-15T01:49:19.459Z,10.52
2022-11-15T01:50:19.442Z,10.52
2022-11-15T01:51:19.442Z,10.54
2022-11-15T01:52:19.429Z,10.57
2022-11-15T01:53:19.411Z,10.57
2022-11-15T01:54:19.418Z,10.55
2022-11-15T01:55:19.399Z,10.55
2022-11-15T01:56:19.409Z,10.55
2022-11-15T01:57:19.352Z,10.58
2022-11-15T01:58:19.384Z,10.58
2022-11-15T01:59:19.328Z,10.60
2022-11-15T02:00:19.311Z,10.58
2022-11-15T02:01:19.397Z,10.62
2022-11-15T02:02:19.292Z,10.62
2022-11-15T02:03:19.317Z,10.65
2022-11-15T02:04:19.264Z,10.65
2022-11-15T02:05:19.267Z,10.65
2022-11-15T02:06:19.273Z,10.66
2022-11-15T02:07:19.408Z,10.68
2022-11-15T02:08:19.250Z,10.69
2022-11-15T02:09:19.209Z,10.68
2022-11-15T02:10:19.199Z,10.69
2022-11-15T02:11:19.207Z,10.68
2022-11-15T02:12:19.182Z,10.70
2022-11-15T02:13:19.199Z,10.72
2022-11-15T02:14:19.163Z,10.72
2022-11-15T02:15:19.128Z,10.73
2022-11-15T02:16:19.166Z,10.75
2022-11-15T02:17:19.109Z,10.76
2022-11-15T02:18:19.092Z,10.78
2022-11-15T02:19:19.071Z,10.80
2022-11-15T02:20:19.068Z,10.80
2022-11-15T02:21:19.074Z,10.78
2022-11-15T02:22:19.045Z,10.76
2022-11-15T02:23:19.060Z,10.80
2022-11-15T02:24:19.007Z,10.80
2022-11-15T02:25:19.015Z,10.84
2022-11-15T02:27:20.920Z,10.84
2022-11-15T02:28:20.938Z,10.83
2022-11-15T02:29:20.921Z,10.83
2022-11-15T02:30:20.878Z,10.83
2022-11-15T02:31:20.888Z,10.86
2022-11-15T02:32:20.858Z,10.86
2022-11-15T02:33:20.890Z,10.86
2022-11-15T02:34:20.841Z,10.87
2022-11-15T02:35:20.813Z,10.87
2022-11-15T02:36:20.800Z,10.87
2022-11-15T02:37:20.818Z,10.87
2022-11-15T02:38:20.790Z,10.88
2022-11-15T02:39:20.786Z,10.86
2022-11-15T02:40:20.769Z,10.86
2022-11-15T02:41:20.766Z,10.86
2022-11-15T02:42:20.757Z,10.86
2022-11-15T02:43:20.754Z,10.90
2022-11-15T02:44:20.725Z,10.91
2022-11-15T02:45:20.687Z,10.93
2022-11-15T02:46:20.697Z,10.98
2022-11-15T02:47:20.658Z,10.99
2022-11-15T02:48:20.669Z,11.01
2022-11-15T02:49:20.629Z,11.01
2022-11-15T02:50:20.624Z,11.01
2022-11-15T02:51:20.626Z,11.02
2022-11-15T02:52:20.623Z,10.99
2022-11-15T02:53:20.622Z,10.98
2022-11-15T02:54:20.594Z,10.99
2022-11-15T02:55:20.590Z,10.99
2022-11-15T02:56:20.567Z,11.02
2022-11-15T02:57:20.569Z,11.02
2022-11-15T02:58:20.552Z,11.03
2022-11-15T02:59:20.532Z,11.02
2022-11-15T03:00:20.513Z,11.01
2022-11-15T03:01:20.580Z,11.02
2022-11-15T03:02:20.493Z,11.01
2022-11-15T03:03:20.492Z,11.02
2022-11-15T03:04:20.461Z,10.99
2022-11-15T03:05:20.428Z,10.99
2022-11-15T03:06:20.433Z,10.98
2022-11-15T03:07:20.424Z,10.98
2022-11-15T03:08:20.412Z,10.98
2022-11-15T03:09:20.412Z,10.99
2022-11-15T03:10:20.361Z,10.98
2022-11-15T03:11:20.370Z,10.98
2022-11-15T03:12:20.331Z,10.94
2022-11-15T03:13:20.313Z,10.94
2022-11-15T03:14:20.351Z,10.94
2022-11-15T03:15:20.284Z,10.91
2022-11-15T03:16:20.310Z,10.94
2022-11-15T03:17:20.263Z,10.94
2022-11-15T03:18:20.261Z,10.94
2022-11-15T03:19:20.288Z,10.94
2022-11-15T03:20:20.233Z,10.93
2022-11-15T03:21:20.244Z,10.91
2022-11-15T03:22:20.207Z,10.90
2022-11-15T03:23:20.211Z,10.90
2022-11-15T03:24:25.680Z,10.91
2022-11-15T03:25:21.199Z,10.91
2022-11-15T03:26:20.149Z,10.88
2022-11-15T03:27:20.160Z,10.88
2022-11-15T03:28:20.146Z,10.88
2022-11-15T03:29:20.110Z,10.87
2022-11-15T03:30:20.120Z,10.86
2022-11-15T03:31:20.092Z,10.86
2022-11-15T03:32:20.105Z,10.86
2022-11-15T03:33:20.060Z,10.84
2022-11-15T03:34:20.075Z,10.86
2022-11-15T03:35:20.077Z,10.84
2022-11-15T03:36:20.047Z,10.84
2022-11-15T03:37:20.037Z,10.84
2022-11-15T03:38:20.009Z,10.84
2022-11-15T03:39:20.823Z,10.86
2022-11-15T03:40:19.989Z,10.84
2022-11-15T03:41:19.960Z,10.84
2022-11-15T03:42:19.987Z,10.86
2022-11-15T03:43:19.928Z,10.86
2022-11-15T03:44:19.946Z,10.87
2022-11-15T03:45:19.946Z,10.87
2022-11-15T03:46:19.926Z,10.87
2022-11-15T03:47:19.895Z,10.87
2022-11-15T03:48:19.893Z,10.87
2022-11-15T03:49:19.850Z,10.87
2022-11-15T03:50:19.840Z,10.88
2022-11-15T03:51:19.860Z,10.88
2022-11-15T03:52:19.847Z,10.91
2022-11-15T03:53:19.828Z,10.91
2022-11-15T03:54:19.796Z,10.94
2022-11-15T03:55:19.799Z,10.95
2022-11-15T03:56:19.795Z,10.94
2022-11-15T03:57:19.772Z,10.95
2022-11-15T03:58:19.759Z,10.95
2022-11-15T03:59:19.744Z,10.95
2022-11-15T04:00:19.734Z,10.95
2022-11-15T04:01:19.763Z,10.98
2022-11-15T04:02:19.723Z,10.99
2022-11-15T04:03:19.667Z,11.01
2022-11-15T04:04:19.682Z,10.99
2022-11-15T04:05:19.665Z,11.01
2022-11-15T04:06:19.661Z,11.01
2022-11-15T04:07:19.709Z,11.02
2022-11-15T04:08:19.642Z,11.02
2022-11-15T04:09:19.595Z,11.02
2022-11-15T04:10:19.584Z,11.02
2022-11-15T04:11:19.592Z,11.02
2022-11-15T04:12:19.582Z,11.03
2022-11-15T04:13:19.578Z,11.02
2022-11-15T04:14:19.552Z,11.02
2022-11-15T04:15:19.515Z,11.05
2022-11-15T04:16:19.537Z,11.06
2022-11-15T04:17:19.511Z,11.06
2022-11-15T04:18:19.488Z,11.08
2022-11-15T04:19:19.458Z,11.08
2022-11-15T04:20:19.472Z,11.09
2022-11-15T04:21:19.469Z,11.13
2022-11-15T04:22:19.443Z,11.12
2022-11-15T04:23:19.441Z,11.16
2022-11-15T04:24:19.397Z,11.16
2022-11-15T04:25:23.007Z,11.16
2022-11-15T04:26:19.400Z,11.16
2022-11-15T04:27:19.355Z,11.13
2022-11-15T04:28:19.390Z,11.16
2022-11-15T04:29:19.340Z,11.19
2022-11-15T04:30:19.340Z,11.21
2022-11-15T04:31:19.333Z,11.20
2022-11-15T04:32:19.319Z,11.20
2022-11-15T04:33:19.309Z,11.20
2022-11-15T04:34:19.262Z,11.20
2022-11-15T04:35:19.281Z,11.19
2022-11-15T04:36:19.239Z,11.19
2022-11-15T04:37:19.221Z,11.17
2022-11-15T04:38:19.259Z,11.16
2022-11-15T04:39:19.201Z,11.16
2022-11-15T04:40:19.186Z,11.19
2022-11-15T04:41:19.173Z,11.20
2022-11-15T04:42:19.189Z,11.23
2022-11-15T04:43:19.180Z,11.21
2022-11-15T04:44:19.152Z,11.21
2022-11-15T04:45:19.149Z,11.21
2022-11-15T04:46:19.132Z,11.27
2022-11-15T04:47:19.117Z,11.27
2022-11-15T04:48:19.081Z,11.26
2022-11-15T04:49:19.088Z,11.27
2022-11-15T04:50:19.057Z,11.26
2022-11-15T04:51:19.050Z,11.27
2022-11-15T04:52:19.056Z,11.27
2022-11-15T04:53:19.048Z,11.27
2022-11-15T04:54:19.030Z,11.28
2022-11-15T04:55:18.991Z,11.27
2022-11-15T04:56:18.988Z,11.28
2022-11-15T04:57:18.999Z,11.30
2022-11-15T04:58:18.959Z,11.31
2022-11-15T04:59:18.938Z,11.31
2022-11-15T05:00:18.946Z,11.31
2022-11-15T05:01:19.033Z,11.28
2022-11-15T05:02:18.926Z,11.28
2022-11-15T05:03:18.905Z,11.28
2022-11-15T05:04:18.900Z,11.27
2022-11-15T05:05:18.910Z,11.28
2022-11-15T05:06:18.847Z,11.30
2022-11-15T05:07:18.943Z,11.28
2022-11-15T05:08:18.838Z,11.28
2022-11-15T05:09:18.842Z,11.31
2022-11-15T05:10:18.852Z,11.30
2022-11-15T05:11:18.786Z,11.30
2022-11-15T05:12:18.766Z,11.30
2022-11-15T05:13:18.783Z,11.28
2022-11-15T05:14:18.753Z,11.28
2022-11-15T05:15:18.763Z,11.26
2022-11-15T05:16:18.786Z,11.27
2022-11-15T05:17:18.702Z,11.28
2022-11-15T05:18:23.315Z,11.28
2022-11-15T05:19:19.702Z,11.28
2022-11-15T05:20:18.683Z,11.33
2022-11-15T05:21:18.671Z,11.31
2022-11-15T05:22:18.669Z,11.33
2022-11-15T05:23:18.633Z,11.31
2022-11-15T05:24:18.643Z,11.33
2022-11-15T05:25:18.598Z,11.35
2022-11-15T05:26:18.633Z,11.36
2022-11-15T05:27:18.602Z,11.35
2022-11-15T05:28:18.564Z,11.35
2022-11-15T05:29:18.582Z,11.33
2022-11-15T05:30:18.552Z,11.35
2022-11-15T05:31:18.552Z,11.36
2022-11-15T05:32:18.552Z,11.38
2022-11-15T05:33:18.527Z,11.39
2022-11-15T05:34:18.481Z,11.39
2022-11-15T05:35:18.471Z,11.41
2022-11-15T05:36:18.452Z,11.42
2022-11-15T05:37:18.464Z,11.41
2022-11-15T05:38:18.459Z,11.39
2022-11-15T05:39:18.457Z,11.39
2022-11-15T05:40:18.431Z,11.39
2022-11-15T05:41:18.419Z,11.39
2022-11-15T05:42:18.373Z,11.39
2022-11-15T05:43:18.378Z,11.39
2022-11-15T05:44:18.351Z,11.39
2022-11-15T05:45:22.547Z,11.39
2022-11-15T05:46:19.329Z,11.39
2022-11-15T05:47:18.317Z,11.39
2022-11-15T05:48:18.337Z,11.41
2022-11-15T05:49:18.309Z,11.39
2022-11-15T05:50:18.305Z,11.39
2022-11-15T05:51:18.265Z,11.38
2022-11-15T05:52:18.241Z,11.38
2022-11-15T05:53:18.250Z,11.36
2022-11-15T05:54:18.256Z,11.38
2022-11-15T05:55:18.248Z,11.38
2022-11-15T05:56:18.190Z,11.35
2022-11-15T05:57:18.234Z,11.33
2022-11-15T05:58:18.195Z,11.31
2022-11-15T05:59:18.181Z,11.31
2022-11-15T06:00:18.138Z,11.31
2022-11-15T06:01:18.155Z,11.31
2022-11-15T06:02:18.229Z,11.30
2022-11-15T06:03:18.112Z,11.31
2022-11-15T06:04:18.125Z,11.28
2022-11-15T06:05:18.088Z,11.26
2022-11-15T06:06:18.096Z,11.26
2022-11-15T06:07:18.152Z,11.23
2022-11-15T06:08:18.067Z,11.21
2022-11-15T06:09:18.040Z,11.20
2022-11-15T06:10:18.008Z,11.17
2022-11-15T06:11:18.003Z,11.16
2022-11-15T06:12:17.985Z,11.16
2022-11-15T06:13:18.004Z,11.13
2022-11-15T06:14:18.006Z,11.12
2022-11-15T06:15:17.967Z,11.11
2022-11-15T06:16:17.972Z,11.06
2022-11-15T06:17:17.952Z,11.05
2022-11-15T06:18:17.907Z,11.05
2022-11-15T06:19:17.937Z,11.03
2022-11-15T06:20:17.937Z,11.01
2022-11-15T06:21:17.902Z,11.01
2022-11-15T06:22:17.847Z,10.99
2022-11-15T06:23:17.872Z,10.95
2022-11-15T06:24:17.861Z,10.94
2022-11-15T06:25:17.826Z,10.94
2022-11-15T06:26:17.820Z,10.94
2022-11-15T06:27:17.814Z,10.93
2022-11-15T06:28:17.825Z,10.90
2022-11-15T06:29:17.796Z,10.88
2022-11-15T06:30:17.782Z,10.88
2022-11-15T06:31:17.771Z,10.88
2022-11-15T06:32:17.753Z,10.87
2022-11-15T06:33:17.714Z,10.86
2022-11-15T06:34:17.721Z,10.86
2022-11-15T06:35:17.711Z,10.86
2022-11-15T06:36:18.153Z,10.84
2022-11-15T06:37:17.675Z,10.83
2022-11-15T06:38:17.644Z,10.80
2022-11-15T06:39:17.634Z,10.78
2022-11-15T06:40:17.624Z,10.75
2022-11-15T06:41:17.613Z,10.75
2022-11-15T06:42:17.625Z,10.72
2022-11-15T06:43:17.593Z,10.73
2022-11-15T06:44:17.593Z,10.72
2022-11-15T06:45:17.582Z,10.72
2022-11-15T06:46:17.571Z,10.69
2022-11-15T06:47:17.570Z,10.66
2022-11-15T06:48:17.688Z,10.66
2022-11-15T06:49:17.502Z,10.66
2022-11-15T06:50:17.510Z,10.63
2022-11-15T06:51:17.486Z,10.62
2022-11-15T06:52:17.488Z,10.63
2022-11-15T06:53:17.479Z,10.62
2022-11-15T06:54:17.475Z,10.65
2022-11-15T06:55:17.449Z,10.63
2022-11-15T06:56:17.411Z,10.66
2022-11-15T06:57:17.438Z,10.66
2022-11-15T06:58:17.426Z,10.68
2022-11-15T06:59:17.431Z,10.66
2022-11-15T07:00:17.601Z,10.68
2022-11-15T07:01:17.644Z,10.66
2022-11-15T07:02:17.372Z,10.68
2022-11-15T07:03:17.575Z,10.65
2022-11-15T07:04:17.751Z,10.66
2022-11-15T07:05:17.402Z,10.66
2022-11-15T07:06:17.500Z,10.66
2022-11-15T07:07:17.499Z,10.66
2022-11-15T07:08:17.366Z,10.68
2022-11-15T07:09:17.347Z,10.66
2022-11-15T07:10:17.627Z,10.65
2022-11-15T07:11:17.474Z,10.63
2022-11-15T07:12:17.636Z,10.63
2022-11-15T07:13:17.379Z,10.62
2022-11-15T07:14:17.361Z,10.62
2022-11-15T07:15:17.235Z,10.63
2022-11-15T07:16:17.496Z,10.62
2022-11-15T07:17:17.598Z,10.60
2022-11-15T07:18:17.283Z,10.58
2022-11-15T07:19:17.131Z,10.60
2022-11-15T07:20:17.159Z,10.58
2022-11-15T07:21:17.294Z,10.60
2022-11-15T07:22:17.242Z,10.57
2022-11-15T07:23:17.266Z,10.58
2022-11-15T07:24:17.158Z,10.57
2022-11-15T07:25:17.297Z,10.57
2022-11-15T07:26:17.323Z,10.57
2022-11-15T07:27:17.137Z,10.54
2022-11-15T07:28:17.237Z,10.57
2022-11-15T07:29:17.161Z,10.57
2022-11-15T07:30:17.026Z,10.55
2022-11-15T07:31:17.026Z,10.54
2022-11-15T07:32:17.307Z,10.54
2022-11-15T07:33:16.952Z,10.52
2022-11-15T07:34:17.110Z,10.54
2022-11-15T07:35:17.023Z,10.51
2022-11-15T07:36:16.952Z,10.49
2022-11-15T07:37:17.077Z,10.47
2022-11-15T07:38:16.979Z,10.51
2022-11-15T07:39:17.043Z,10.47
2022-11-15T07:40:17.152Z,10.46
2022-11-15T07:41:17.175Z,10.46
2022-11-15T07:42:16.836Z,10.46
2022-11-15T07:43:16.825Z,10.47
2022-11-15T07:44:16.978Z,10.49
2022-11-15T07:45:16.899Z,10.47
2022-11-15T07:46:16.970Z,10.49
2022-11-15T07:47:16.886Z,10.49
2022-11-15T07:48:16.843Z,10.49
2022-11-15T07:49:17.001Z,10.51
2022-11-15T07:50:16.826Z,10.54
2022-11-15T07:51:16.913Z,10.52
2022-11-15T07:52:16.763Z,10.54
2022-11-15T07:53:16.836Z,10.54
2022-11-15T07:54:16.752Z,10.55
2022-11-15T07:55:25.997Z,10.52
2022-11-15T07:56:16.663Z,10.55
2022-11-15T07:57:16.891Z,10.54
2022-11-15T07:58:16.823Z,10.55
2022-11-15T07:59:16.782Z,10.55
2022-11-15T08:00:16.719Z,10.54
2022-11-15T08:01:16.767Z,10.55
2022-11-15T08:02:16.929Z,10.54
2022-11-15T08:03:16.669Z,10.55
2022-11-15T08:04:16.601Z,10.58
2022-11-15T08:05:16.712Z,10.58
2022-11-15T08:06:16.770Z,10.57
2022-11-15T08:07:17.474Z,10.58
2022-11-15T08:08:16.728Z,10.58
2022-11-15T08:09:16.530Z,10.60
2022-11-15T08:10:16.539Z,10.60
2022-11-15T08:11:16.650Z,10.62
2022-11-15T08:12:16.617Z,10.63
2022-11-15T08:13:16.517Z,10.65
2022-11-15T08:14:16.615Z,10.63
2022-11-15T08:15:16.698Z,10.63
2022-11-15T08:16:16.501Z,10.66
2022-11-15T08:17:16.658Z,10.66
2022-11-15T08:18:16.460Z,10.65
2022-11-15T08:19:16.688Z,10.66
2022-11-15T08:20:16.518Z,10.68
2022-11-15T08:21:18.381Z,10.65
2022-11-15T08:22:16.337Z,10.68
2022-11-15T08:23:16.283Z,10.66
2022-11-15T08:24:16.270Z,10.66
2022-11-15T08:25:16.301Z,10.66
2022-11-15T08:26:16.243Z,10.68
2022-11-15T08:27:16.322Z,10.69
2022-11-15T08:28:16.254Z,10.68
2022-11-15T08:29:16.209Z,10.69
2022-11-15T08:30:16.267Z,10.69
2022-11-15T08:31:16.209Z,10.68
2022-11-15T08:32:16.184Z,10.69
2022-11-15T08:33:16.163Z,10.68
2022-11-15T08:34:16.174Z,10.69
2022-11-15T08:35:16.131Z,10.69
2022-11-15T08:36:16.124Z,10.69
2022-11-15T08:37:16.121Z,10.70
2022-11-15T08:38:16.144Z,10.72
2022-11-15T08:39:16.098Z,10.72
2022-11-15T08:40:16.117Z,10.73
2022-11-15T08:41:16.060Z,10.75
2022-11-15T08:42:19.782Z,10.76
2022-11-15T08:43:16.025Z,10.75
2022-11-15T08:44:15.999Z,10.78
2022-11-15T08:45:16.033Z,10.80
2022-11-15T08:46:16.014Z,10.81
2022-11-15T08:47:15.997Z,10.83
2022-11-15T08:48:15.965Z,10.84
2022-11-15T08:49:15.937Z,10.88
2022-11-15T08:50:15.993Z,10.93
2022-11-15T08:51:15.982Z,10.95
2022-11-15T08:52:16.001Z,10.95
2022-11-15T08:53:15.963Z,10.99
2022-11-15T08:54:15.982Z,11.03
2022-11-15T08:55:17.579Z,11.08
2022-11-15T08:56:15.864Z,11.08
2022-11-15T08:57:15.864Z,11.09
2022-11-15T08:58:15.868Z,11.11
2022-11-15T08:59:15.864Z,11.12
2022-11-15T09:00:15.818Z,11.12
2022-11-15T09:01:18.553Z,11.16
2022-11-15T09:02:15.808Z,11.17
2022-11-15T09:03:15.784Z,11.20
2022-11-15T09:04:15.781Z,11.21
2022-11-15T09:05:15.791Z,11.21
2022-11-15T09:06:16.201Z,11.24
2022-11-15T09:07:15.814Z,11.26
2022-11-15T09:08:45.582Z,11.27
2022-11-15T09:09:16.797Z,11.30
2022-11-15T09:10:15.663Z,11.31
2022-11-15T09:11:15.690Z,11.33
2022-11-15T09:12:15.643Z,11.35
2022-11-15T09:13:15.632Z,11.36
2022-11-15T09:14:15.652Z,11.36
2022-11-15T09:15:15.660Z,11.36
2022-11-15T09:16:15.600Z,11.35
2022-11-15T09:17:19.148Z,11.39
2022-11-15T09:18:16.660Z,11.42
2022-11-15T09:19:15.630Z,11.44
2022-11-15T09:20:15.538Z,11.48
2022-11-15T09:21:15.578Z,11.51
2022-11-15T09:22:15.511Z,11.56
2022-11-15T09:23:15.543Z,11.60
2022-11-15T09:24:15.525Z,11.63
2022-11-15T09:25:15.537Z,11.66
2022-11-15T09:26:15.483Z,11.69
2022-11-15T09:27:15.478Z,11.70
2022-11-15T09:29:46.692Z,11.75
2022-11-15T09:30:25.379Z,11.75
2022-11-15T09:31:25.360Z,11.74
2022-11-15T09:32:25.441Z,11.75
2022-11-15T09:33:25.310Z,11.78
2022-11-15T09:34:25.311Z,11.81
2022-11-15T09:35:25.363Z,11.84
2022-11-15T09:36:25.290Z,11.87
2022-11-15T09:37:25.259Z,11.85
2022-11-15T09:38:25.250Z,11.85
2022-11-15T09:39:25.223Z,11.84
2022-11-15T09:40:25.218Z,11.82
2022-11-15T09:41:25.250Z,11.82
2022-11-15T09:42:25.211Z,11.84
2022-11-15T09:43:25.197Z,11.85
2022-11-15T09:44:25.851Z,11.84
2022-11-15T09:45:25.195Z,11.84
2022-11-15T09:46:25.179Z,11.87
2022-11-15T09:47:25.177Z,11.93
2022-11-15T09:48:25.176Z,11.93
2022-11-15T09:49:25.132Z,11.96
2022-11-15T09:50:25.127Z,11.98
2022-11-15T09:51:25.115Z,11.98
2022-11-15T09:52:25.077Z,12.00
2022-11-15T09:53:50.706Z,12.00
2022-11-15T09:54:56.485Z,11.98
2022-11-15T09:55:26.038Z,12.00
2022-11-15T09:56:25.040Z,12.01
2022-11-15T09:57:25.019Z,12.01
2022-11-15T09:58:25.044Z,12.04
2022-11-15T09:59:24.977Z,12.03
2022-11-15T10:00:54.962Z,12.01
2022-11-15T10:01:26.062Z,12.01
2022-11-15T10:02:24.936Z,12.00
2022-11-15T10:03:24.975Z,12.00
2022-11-15T10:04:24.937Z,12.00
2022-11-15T10:05:24.932Z,12.00
2022-11-15T10:06:24.926Z,12.01
2022-11-15T10:07:25.144Z,12.03
2022-11-15T10:08:24.948Z,12.04
2022-11-15T10:09:24.933Z,12.05
2022-11-15T10:10:24.862Z,12.07
2022-11-15T10:11:40.323Z,12.08
2022-11-15T10:12:25.836Z,12.11
2022-11-15T10:13:24.804Z,12.12
2022-11-15T10:14:24.841Z,12.11
2022-11-15T10:15:24.811Z,12.16
2022-11-15T10:16:24.765Z,12.21
2022-11-15T10:17:24.772Z,12.22
2022-11-15T10:18:24.743Z,12.23
2022-11-15T10:19:24.770Z,12.22
2022-11-15T10:20:24.754Z,12.26
2022-11-15T10:21:24.879Z,12.29
2022-11-15T10:22:24.709Z,12.30
2022-11-15T10:23:24.708Z,12.31
2022-11-15T10:24:24.679Z,12.29
2022-11-15T10:25:24.634Z,12.31
2022-11-15T10:26:24.651Z,12.33
2022-11-15T10:27:24.640Z,12.33
2022-11-15T10:28:24.662Z,12.34
2022-11-15T10:29:27.108Z,12.34
2022-11-15T10:30:24.589Z,12.36
2022-11-15T10:31:24.595Z,12.36
2022-11-15T10:32:24.558Z,12.38
2022-11-15T10:33:24.561Z,12.41
2022-11-15T10:34:24.526Z,12.44
2022-11-15T10:35:24.603Z,12.46
2022-11-15T10:36:24.568Z,12.51
2022-11-15T10:37:24.576Z,12.52
2022-11-15T10:38:24.533Z,12.55
2022-11-15T10:40:34.773Z,12.51
2022-11-15T10:41:41.486Z,12.51
2022-11-15T10:42:34.803Z,12.48
2022-11-15T10:43:34.800Z,12.48
2022-11-15T10:44:34.723Z,12.44
2022-11-15T10:45:34.733Z,12.43
2022-11-15T10:46:50.104Z,12.41
2022-11-15T10:47:39.511Z,12.40
2022-11-15T10:48:34.804Z,12.43
2022-11-15T10:49:34.699Z,12.43
2022-11-15T10:50:35.035Z,12.40
2022-11-15T10:51:34.674Z,12.43
2022-11-15T10:52:34.659Z,12.48
2022-11-15T10:53:34.633Z,12.49
2022-11-15T10:54:34.611Z,12.52
2022-11-15T10:55:34.629Z,12.58
2022-11-15T10:56:34.561Z,12.59
2022-11-15T10:57:34.641Z,12.61
2022-11-15T10:58:34.990Z,12.62
2022-11-15T10:59:38.833Z,12.63
2022-11-15T11:00:34.581Z,12.63
2022-11-15T11:01:34.672Z,12.63
2022-11-15T11:02:34.538Z,12.69
2022-11-15T11:03:34.509Z,12.69
2022-11-15T11:04:34.541Z,12.67
2022-11-15T11:05:41.057Z,12.67
2022-11-15T11:06:35.480Z,12.70
2022-11-15T11:07:34.600Z,12.71
2022-11-15T11:08:34.566Z,12.74
2022-11-15T11:09:34.436Z,12.74
2022-11-15T11:10:51.179Z,12.71
2022-11-15T11:11:35.402Z,12.70
2022-11-15T11:12:34.349Z,12.69
2022-11-15T11:13:34.413Z,12.66
2022-11-15T11:14:34.378Z,12.63
2022-11-15T11:15:34.310Z,12.63
2022-11-15T11:16:38.823Z,12.63
2022-11-15T11:17:34.317Z,12.63
2022-11-15T11:18:34.658Z,12.66
2022-11-15T11:19:34.304Z,12.67
2022-11-15T11:20:34.284Z,12.69
2022-11-15T11:21:39.761Z,12.70
2022-11-15T11:22:35.274Z,12.69
2022-11-15T11:23:34.488Z,12.70
2022-11-15T11:24:34.252Z,12.73
2022-11-15T11:25:34.236Z,12.74
2022-11-15T11:26:34.195Z,12.77
2022-11-15T11:27:34.185Z,12.80
2022-11-15T11:28:34.846Z,12.81
2022-11-15T11:29:34.197Z,12.80
2022-11-15T11:30:34.115Z,12.80
2022-11-15T11:31:34.143Z,12.79
2022-11-15T11:32:34.092Z,12.79
2022-11-15T11:33:34.246Z,12.74
2022-11-15T11:34:34.094Z,12.74
2022-11-15T11:35:34.138Z,12.67
2022-11-15T11:36:34.066Z,12.63
2022-11-15T11:37:34.025Z,12.62
2022-11-15T11:38:34.482Z,12.62
2022-11-15T11:39:34.061Z,12.63
2022-11-15T11:40:34.071Z,12.66
2022-11-15T11:41:33.984Z,12.66
2022-11-15T11:42:34.021Z,12.66
2022-11-15T11:43:34.075Z,12.67
2022-11-15T11:44:34.057Z,12.69
2022-11-15T11:45:34.001Z,12.67
2022-11-15T11:46:34.011Z,12.69
2022-11-15T11:47:33.917Z,12.71
2022-11-15T11:48:34.310Z,12.77
2022-11-15T11:49:33.930Z,12.79
2022-11-15T11:50:34.053Z,12.81
2022-11-15T11:51:33.980Z,12.81
2022-11-15T11:52:33.959Z,12.85
2022-11-15T11:53:33.947Z,12.85
2022-11-15T11:54:33.877Z,12.85
2022-11-15T11:55:33.980Z,12.87
2022-11-15T11:56:33.876Z,12.85
2022-11-15T11:57:33.811Z,12.88
2022-11-15T11:58:34.127Z,12.94
2022-11-15T11:59:33.772Z,12.98
2022-11-15T12:00:33.772Z,13.03
2022-11-15T12:01:33.785Z,13.06
2022-11-15T12:02:33.979Z,13.06
2022-11-15T12:03:33.798Z,13.09
2022-11-15T12:04:33.709Z,13.12
2022-11-15T12:05:33.776Z,13.14
2022-11-15T12:06:33.723Z,13.17
2022-11-15T12:07:33.716Z,13.19
2022-11-15T12:08:34.122Z,13.25
2022-11-15T12:09:33.642Z,13.29
2022-11-15T12:10:33.648Z,13.36
2022-11-15T12:11:33.657Z,13.38
2022-11-15T12:12:33.680Z,13.43
2022-11-15T12:13:33.669Z,13.44
2022-11-15T12:14:33.678Z,13.47
2022-11-15T12:15:33.633Z,13.47
2022-11-15T12:16:33.597Z,13.48
2022-11-15T12:17:33.579Z,13.48
2022-11-15T12:18:33.770Z,13.47
2022-11-15T12:19:33.567Z,13.44
2022-11-15T12:20:33.509Z,13.43
2022-11-15T12:21:33.614Z,13.39
2022-11-15T12:22:33.574Z,13.38
2022-11-15T12:23:33.494Z,13.36
2022-11-15T12:24:33.455Z,13.32
2022-11-15T12:25:33.549Z,13.31
2022-11-15T12:26:33.413Z,13.31
2022-11-15T12:27:33.523Z,13.29
2022-11-15T12:28:33.699Z,13.29
2022-11-15T12:29:33.472Z,13.29
2022-11-15T12:30:33.395Z,13.31
2022-11-15T12:31:33.418Z,13.35
2022-11-15T12:32:33.367Z,13.36
2022-11-15T12:33:33.333Z,13.41
2022-11-15T12:34:33.292Z,13.44
2022-11-15T12:35:33.274Z,13.48
2022-11-15T12:36:33.364Z,13.50
2022-11-15T12:37:33.274Z,13.55
2022-11-15T12:38:33.503Z,13.57
2022-11-15T12:39:33.334Z,13.57
2022-11-15T12:40:33.216Z,13.57
2022-11-15T12:41:33.388Z,13.57
2022-11-15T12:42:33.220Z,13.59
2022-11-15T12:43:33.182Z,13.54
2022-11-15T12:44:33.249Z,13.53
2022-11-15T12:45:33.181Z,13.50
2022-11-15T12:46:33.126Z,13.46
2022-11-15T12:47:33.203Z,13.43
2022-11-15T12:48:33.644Z,13.39
2022-11-15T12:49:33.176Z,13.39
2022-11-15T12:50:33.122Z,13.35
2022-11-15T12:51:33.220Z,13.32
2022-11-15T12:52:33.071Z,13.32
2022-11-15T12:53:33.083Z,13.31
2022-11-15T12:54:33.052Z,13.31
2022-11-15T12:55:33.064Z,13.31
2022-11-15T12:56:33.070Z,13.29